< Cyclone 201920 2019 Season Cyclone 201926 >
Cyclone 201921 (Wallace)
General InformationDetailed Track InformationTrack Information on Google MapsList of All Images || ResourceGoogle EarthGE AnimationAtom FeedGeoJSON
Detalied Best Track Wind (Time Zone = UTC)
Year Month Day Hour Lat. Long. Wind (kt) Gust (kt) Direc. of Major Storm Axis Radius of Major Storm Axis (nm) Radius of Minor Storm Axis (nm) Direc. of Major Gale Axis Radius of Major Gale Axis (nm) Radius of Minor Gale Axis (nm) Image
2019 4 3 00 -7.4 132.8 20 30 symmetric - - symmetric - - Image
2019 4 3 06 -7.7 132.2 25 35 symmetric - - symmetric - - Image
2019 4 3 12 -8.1 133.0 25 45 symmetric - - symmetric - - Image
2019 4 3 18 -8.5 131.9 25 45 symmetric - - symmetric - - Image
2019 4 4 00 -9.7 131.0 30 45 symmetric - - symmetric - - Image
2019 4 4 06 -10.5 130.0 30 45 symmetric - - symmetric - - Image
2019 4 4 12 -10.5 129.3 30 45 symmetric - - symmetric - - Image
2019 4 4 18 -11.0 129.0 30 45 symmetric - - symmetric - - Image
2019 4 5 00 -11.5 128.3 30 45 symmetric - - symmetric - - Image
2019 4 5 06 -11.7 127.4 30 45 symmetric - - symmetric - - Image
2019 4 5 12 -11.6 126.2 30 45 symmetric - - symmetric - - Image
2019 4 5 18 -11.6 125.9 40 55 symmetric - - symmetric - - Image
2019 4 6 00 -11.8 125.1 45 65 symmetric - - symmetric - - Image
2019 4 6 06 -12.1 124.3 45 65 symmetric - - symmetric - - Image
2019 4 6 12 -12.7 123.1 45 65 symmetric - - symmetric - - Image
2019 4 6 18 -12.8 122.0 45 65 symmetric - - symmetric - - Image
2019 4 7 00 -12.9 121.0 50 70 symmetric - - symmetric - - Image
2019 4 7 06 -13.0 119.9 50 70 symmetric - - symmetric - - Image
2019 4 7 12 -13.3 118.8 50 70 symmetric - - symmetric - - Image
2019 4 7 18 -13.8 118.0 50 70 symmetric - - symmetric - - Image
2019 4 8 00 -14.4 117.3 55 75 symmetric - - symmetric - - Image
2019 4 8 06 -15.1 116.5 55 75 symmetric - - symmetric - - Image
2019 4 8 12 -15.7 115.8 60 85 symmetric - - symmetric - - Image
2019 4 8 18 -16.1 115.1 65 90 symmetric - - symmetric - - Image
2019 4 9 00 -16.0 114.6 60 85 symmetric - - symmetric - - Image
2019 4 9 06 -16.1 114.3 50 70 symmetric - - symmetric - - Image
2019 4 9 12 -16.4 113.9 45 65 symmetric - - symmetric - - Image
2019 4 9 18 -16.7 112.8 45 65 symmetric - - symmetric - - Image
2019 4 10 00 -16.7 112.4 40 55 symmetric - - symmetric - - Image
< Cyclone 201920 2019 Season Cyclone 201926 >

Help